createdAt,value
2022-08-06T00:02:07.370Z,3.50
2022-08-06T00:04:35.373Z,3.13
2022-08-06T00:07:05.208Z,3.13
2022-08-06T00:09:57.126Z,3.10
2022-08-06T00:12:22.457Z,3.00
2022-08-06T00:14:57.695Z,3.38
2022-08-06T00:17:31.741Z,3.35
2022-08-06T00:20:02.823Z,3.47
2022-08-06T00:22:32.064Z,3.53
2022-08-06T00:25:01.117Z,3.75
2022-08-06T00:27:38.423Z,3.83
2022-08-06T00:30:14.989Z,3.55
2022-08-06T00:32:51.852Z,3.47
2022-08-06T00:35:23.683Z,4.13
2022-08-06T00:37:58.506Z,3.80
2022-08-06T00:40:28.827Z,3.97
2022-08-06T00:42:58.334Z,4.07
2022-08-06T00:45:26.597Z,4.03
2022-08-06T00:50:32.231Z,3.78
2022-08-06T00:53:01.749Z,3.53
2022-08-06T00:55:31.854Z,4.15
2022-08-06T00:58:05.244Z,3.50
2022-08-06T01:00:38.669Z,3.75
2022-08-06T01:03:19.067Z,3.95
2022-08-06T01:06:06.697Z,3.72
2022-08-06T01:08:45.323Z,3.50
2022-08-06T01:11:14.172Z,3.60
2022-08-06T01:14:03.529Z,3.28
2022-08-06T01:16:40.554Z,3.88
2022-08-06T01:21:20.378Z,3.35
2022-08-06T01:22:48.215Z,3.20
2022-08-06T01:25:48.781Z,3.40
2022-08-06T01:28:28.740Z,3.53
2022-08-06T01:31:04.895Z,3.60
2022-08-06T01:33:40.374Z,3.65
2022-08-06T01:36:17.224Z,3.95
2022-08-06T01:38:59.278Z,3.67
2022-08-06T01:41:56.277Z,3.20
2022-08-06T01:44:36.262Z,3.30
2022-08-06T01:47:16.303Z,4.13
2022-08-06T01:50:01.391Z,3.20
2022-08-06T01:52:36.557Z,3.50
2022-08-06T01:55:09.845Z,3.78
2022-08-06T01:58:07.465Z,3.50
2022-08-06T02:00:33.090Z,3.22
2022-08-06T02:03:04.265Z,3.08
2022-08-06T02:05:44.732Z,3.38
2022-08-06T02:08:39.399Z,3.20
2022-08-06T02:12:00.710Z,3.70
2022-08-06T02:14:02.036Z,3.58
2022-08-06T02:16:36.336Z,4.03
2022-08-06T02:19:15.942Z,3.58
2022-08-06T02:21:50.596Z,3.40
2022-08-06T02:24:28.460Z,3.60
2022-08-06T02:27:00.828Z,3.95
2022-08-06T02:30:05.077Z,3.42
2022-08-06T02:32:20.987Z,4.28
2022-08-06T02:34:52.528Z,3.50
2022-08-06T02:38:02.694Z,4.07
2022-08-06T02:40:19.815Z,3.67
2022-08-06T02:42:55.288Z,3.95
2022-08-06T02:45:29.828Z,3.55
2022-08-06T02:48:22.138Z,3.60
2022-08-06T02:51:05.296Z,3.47
2022-08-06T02:54:04.203Z,3.67
2022-08-06T02:56:42.686Z,3.83
2022-08-06T02:59:17.242Z,3.60
2022-08-06T03:01:51.136Z,3.25
2022-08-06T03:04:32.005Z,4.97
2022-08-06T03:07:06.738Z,3.70
2022-08-06T03:09:56.421Z,3.13
2022-08-06T03:12:29.401Z,3.55
2022-08-06T03:15:15.317Z,4.27
2022-08-06T03:18:01.568Z,3.08
2022-08-06T03:20:34.880Z,3.45
2022-08-06T03:23:06.842Z,4.03
2022-08-06T03:25:42.157Z,3.75
2022-08-06T03:28:11.479Z,3.60
2022-08-06T03:30:49.436Z,3.22
2022-08-06T03:33:29.250Z,3.00
2022-08-06T03:36:17.586Z,2.80
2022-08-06T03:38:54.482Z,3.53
2022-08-06T03:41:29.146Z,2.88
2022-08-06T03:44:04.861Z,3.53
2022-08-06T03:46:37.713Z,2.80
2022-08-06T03:49:10.293Z,2.40
2022-08-06T03:51:51.929Z,2.80
2022-08-06T03:54:30.393Z,2.70
2022-08-06T03:57:08.465Z,2.45
2022-08-06T03:59:57.490Z,2.60
2022-08-06T04:02:36.655Z,2.63
2022-08-06T04:05:13.667Z,2.45
2022-08-06T04:07:55.052Z,2.60
2022-08-06T04:10:33.777Z,2.70
2022-08-06T04:13:08.130Z,2.50
2022-08-06T04:15:55.981Z,2.28
2022-08-06T04:18:27.231Z,1.92
2022-08-06T04:21:05.178Z,2.00
2022-08-06T04:23:48.515Z,1.80
2022-08-06T04:26:20.594Z,1.83
2022-08-06T04:28:53.235Z,1.88
2022-08-06T04:32:13.042Z,1.83
2022-08-06T04:34:26.955Z,2.00
2022-08-06T04:36:58.562Z,2.05
2022-08-06T04:39:37.289Z,2.38
2022-08-06T04:42:09.452Z,2.00
2022-08-06T04:44:38.217Z,2.10
2022-08-06T04:47:14.825Z,2.03
2022-08-06T04:50:01.578Z,2.00
2022-08-06T04:52:46.105Z,2.05
2022-08-06T04:55:24.938Z,2.25
2022-08-06T04:58:03.858Z,2.60
2022-08-06T05:00:59.779Z,2.20
2022-08-06T05:04:06.176Z,2.00
2022-08-06T05:06:21.931Z,2.00
2022-08-06T05:08:55.395Z,1.90
2022-08-06T05:11:28.810Z,2.10
2022-08-06T05:14:03.220Z,1.95
2022-08-06T05:16:38.785Z,2.40
2022-08-06T05:19:20.103Z,1.80
2022-08-06T05:22:10.321Z,2.95
2022-08-06T05:25:00.919Z,2.22
2022-08-06T05:27:54.563Z,1.80
2022-08-06T05:30:19.678Z,1.90
2022-08-06T05:32:50.974Z,1.70
2022-08-06T05:35:41.543Z,1.80
2022-08-06T05:38:13.379Z,1.83
2022-08-06T05:40:53.300Z,1.92
2022-08-06T05:43:59.880Z,1.70
2022-08-06T05:46:21.561Z,1.40
2022-08-06T05:49:12.109Z,1.52
2022-08-06T05:51:58.363Z,1.67
2022-08-06T05:54:34.930Z,1.50
2022-08-06T05:57:07.335Z,1.60
2022-08-06T05:59:57.057Z,1.40
2022-08-06T06:02:29.598Z,1.33
2022-08-06T06:06:07.423Z,1.20
2022-08-06T06:08:08.195Z,1.33
2022-08-06T06:10:39.550Z,1.67
2022-08-06T06:13:25.449Z,1.40
2022-08-06T06:16:14.052Z,1.75
2022-08-06T06:19:05.089Z,1.42
2022-08-06T06:21:51.037Z,1.70
2022-08-06T06:24:24.855Z,1.52
2022-08-06T06:26:59.074Z,1.50
2022-08-06T06:30:02.558Z,1.80
2022-08-06T06:32:41.604Z,1.77
2022-08-06T06:35:20.713Z,1.50
2022-08-06T06:37:58.147Z,1.40
2022-08-06T06:41:00.042Z,1.73
2022-08-06T06:43:44.095Z,1.90
2022-08-06T06:46:36.182Z,1.73
2022-08-06T06:49:59.453Z,1.50
2022-08-06T06:52:09.560Z,1.70
2022-08-06T06:54:42.274Z,1.52
2022-08-06T06:57:17.810Z,1.50
2022-08-06T07:00:01.389Z,1.50
2022-08-06T07:02:41.388Z,1.48
2022-08-06T07:05:13.614Z,1.63
2022-08-06T07:07:49.626Z,1.50
2022-08-06T07:10:20.884Z,1.20
2022-08-06T07:12:53.763Z,1.95
2022-08-06T07:15:23.996Z,1.95
2022-08-06T07:17:59.752Z,1.75
2022-08-06T07:20:45.170Z,2.03
2022-08-06T07:24:06.672Z,1.60
2022-08-06T07:26:07.376Z,1.67
2022-08-06T07:28:36.756Z,1.80
2022-08-06T07:31:09.570Z,1.50
2022-08-06T07:34:00.147Z,1.50
2022-08-06T07:36:37.554Z,1.38
2022-08-06T07:39:09.585Z,1.48
2022-08-06T07:42:07.671Z,1.33
2022-08-06T07:44:33.874Z,1.40
2022-08-06T07:47:23.330Z,1.45
2022-08-06T07:50:00.046Z,1.10
2022-08-06T07:52:31.738Z,1.58
2022-08-06T07:55:01.491Z,1.00
2022-08-06T07:57:53.401Z,1.50
2022-08-06T08:00:20.941Z,1.00
2022-08-06T08:03:03.349Z,1.38
2022-08-06T08:06:00.812Z,1.50
2022-08-06T08:08:32.087Z,1.17
2022-08-06T08:11:03.379Z,0.90
2022-08-06T08:13:41.721Z,1.67
2022-08-06T08:16:20.177Z,1.25
2022-08-06T08:18:56.464Z,1.00
2022-08-06T08:21:24.940Z,1.17
2022-08-06T08:23:55.794Z,1.50
2022-08-06T08:26:25.275Z,1.10
2022-08-06T08:28:53.636Z,1.15
2022-08-06T08:31:25.756Z,1.02
2022-08-06T08:33:54.964Z,0.80
2022-08-06T08:36:30.586Z,1.10
2022-08-06T08:39:00.569Z,1.20
2022-08-06T08:41:48.628Z,1.02
2022-08-06T08:44:26.789Z,1.23
2022-08-06T08:46:58.802Z,1.23
2022-08-06T08:49:32.570Z,1.07
2022-08-06T08:52:01.798Z,1.13
2022-08-06T08:54:36.749Z,1.00
2022-08-06T08:58:40.687Z,1.23
2022-08-06T09:00:01.934Z,1.30
2022-08-06T09:02:31.637Z,1.33
2022-08-06T09:05:01.877Z,0.90
2022-08-06T09:07:35.605Z,1.10
2022-08-06T09:10:09.168Z,1.25
2022-08-06T09:12:45.233Z,0.80
2022-08-06T09:15:17.508Z,1.00
2022-08-06T09:18:11.637Z,0.90
2022-08-06T09:20:36.684Z,0.95
2022-08-06T09:23:07.831Z,1.13
2022-08-06T09:25:49.561Z,1.08
2022-08-06T09:28:34.055Z,1.13
2022-08-06T09:31:05.510Z,0.88
2022-08-06T09:34:31.046Z,0.82
2022-08-06T09:36:30.359Z,0.90
2022-08-06T09:39:01.198Z,0.90
2022-08-06T09:41:32.827Z,0.60
2022-08-06T09:44:37.754Z,0.80
2022-08-06T09:47:01.152Z,0.73
2022-08-06T09:49:58.475Z,0.80
2022-08-06T09:52:28.777Z,0.60
2022-08-06T09:54:56.827Z,0.90
2022-08-06T09:57:35.963Z,0.93
2022-08-06T10:00:14.686Z,1.00
2022-08-06T10:02:50.838Z,0.77
2022-08-06T10:05:23.162Z,0.70
2022-08-06T10:08:05.550Z,1.00
2022-08-06T10:10:45.196Z,0.90
2022-08-06T10:13:19.980Z,0.88
2022-08-06T10:16:00.488Z,0.85
2022-08-06T10:18:55.295Z,0.73
2022-08-06T10:21:41.277Z,0.45
2022-08-06T10:24:12.428Z,0.70
2022-08-06T10:26:43.569Z,0.77
2022-08-06T10:29:16.433Z,0.52
2022-08-06T10:31:46.659Z,0.77
2022-08-06T10:34:29.647Z,0.75
2022-08-06T10:37:03.661Z,0.70
2022-08-06T10:40:09.515Z,0.80
2022-08-06T10:42:28.393Z,1.42
2022-08-06T10:45:00.080Z,0.60
2022-08-06T10:48:57.695Z,1.20
2022-08-06T10:50:44.655Z,0.88
2022-08-06T10:53:59.317Z,1.00
2022-08-06T10:56:08.866Z,0.80
2022-08-06T10:58:38.854Z,0.68
2022-08-06T11:01:16.952Z,0.70
2022-08-06T11:03:57.438Z,0.70
2022-08-06T11:06:39.401Z,1.30
2022-08-06T11:09:59.854Z,0.60
2022-08-06T11:12:33.192Z,0.80
2022-08-06T11:15:02.777Z,0.85
2022-08-06T11:17:46.110Z,0.90
2022-08-06T11:20:37.611Z,0.70
2022-08-06T11:23:11.896Z,0.82
2022-08-06T11:25:57.217Z,0.75
2022-08-06T11:29:01.074Z,0.85
2022-08-06T11:31:44.397Z,0.60
2022-08-06T11:34:51.103Z,0.70
2022-08-06T11:38:03.711Z,0.55
2022-08-06T11:40:55.242Z,0.50
2022-08-06T11:44:04.107Z,0.65
2022-08-06T11:46:36.556Z,0.60
2022-08-06T11:49:42.967Z,0.70
2022-08-06T11:52:39.378Z,0.60
2022-08-06T11:55:12.902Z,0.75
2022-08-06T11:58:15.215Z,0.90
2022-08-06T12:00:58.273Z,0.65
2022-08-06T12:03:44.498Z,0.98
2022-08-06T12:06:29.254Z,0.63
2022-08-06T12:09:20.907Z,0.60
2022-08-06T12:11:52.183Z,1.05
2022-08-06T12:14:47.313Z,0.70
2022-08-06T12:17:18.647Z,0.50
2022-08-06T12:20:02.731Z,0.70
2022-08-06T12:22:33.933Z,0.80
2022-08-06T12:25:10.779Z,0.60
2022-08-06T12:27:50.434Z,0.50
2022-08-06T12:30:36.203Z,0.85
2022-08-06T12:33:12.282Z,0.50
2022-08-06T12:35:52.399Z,0.60
2022-08-06T12:38:24.744Z,0.50
2022-08-06T12:43:42.982Z,0.50
2022-08-06T12:46:19.583Z,0.50
2022-08-06T12:48:51.063Z,0.57
2022-08-06T12:51:21.964Z,0.63
2022-08-06T12:54:00.135Z,0.85
2022-08-06T13:02:10.106Z,0.70
2022-08-06T13:04:29.760Z,0.80
2022-08-06T13:07:01.968Z,0.70
2022-08-06T13:09:35.953Z,0.50
2022-08-06T13:12:20.015Z,0.63
2022-08-06T13:15:02.657Z,0.70
2022-08-06T13:18:03.589Z,1.10
2022-08-06T13:20:43.732Z,0.88
2022-08-06T13:23:23.208Z,0.60
2022-08-06T13:25:53.421Z,0.60
2022-08-06T13:28:29.026Z,0.85
2022-08-06T13:31:01.426Z,0.70
2022-08-06T13:33:29.845Z,0.60
2022-08-06T13:36:08.313Z,0.90
2022-08-06T13:38:42.092Z,0.60
2022-08-06T13:41:26.169Z,0.65
2022-08-06T13:43:57.914Z,0.70
2022-08-06T13:46:29.517Z,0.65
2022-08-06T13:49:01.579Z,0.70
2022-08-06T13:51:34.626Z,0.60
2022-08-06T13:54:14.364Z,1.20
2022-08-06T13:59:40.599Z,0.60
2022-08-06T14:02:12.295Z,0.73
2022-08-06T14:04:40.933Z,0.63
2022-08-06T14:07:17.907Z,0.50
2022-08-06T14:10:07.927Z,0.63
2022-08-06T14:12:35.527Z,0.65
2022-08-06T14:15:03.829Z,0.63
2022-08-06T14:17:35.146Z,0.57
2022-08-06T14:20:14.183Z,0.65
2022-08-06T14:22:48.334Z,0.70
2022-08-06T14:25:17.947Z,0.60
2022-08-06T14:27:47.302Z,0.90
2022-08-06T14:30:25.445Z,0.60
2022-08-06T14:32:57.084Z,0.88
2022-08-06T14:35:26.062Z,0.85
2022-08-06T14:37:55.969Z,0.73
2022-08-06T14:41:01.479Z,0.80
2022-08-06T14:43:55.820Z,0.70
2022-08-06T14:46:27.513Z,0.70
2022-08-06T14:49:00.344Z,0.85
2022-08-06T14:51:48.423Z,1.00
2022-08-06T14:54:18.540Z,0.60
2022-08-06T14:56:52.452Z,1.00
2022-08-06T14:59:23.471Z,0.90
2022-08-06T15:01:51.979Z,0.77
2022-08-06T15:04:23.489Z,0.70
2022-08-06T15:06:58.678Z,0.70
2022-08-06T15:10:06.064Z,0.90
2022-08-06T15:12:35.098Z,0.90
2022-08-06T15:15:13.339Z,0.60
2022-08-06T15:18:07.164Z,0.60
2022-08-06T15:20:30.159Z,0.60
2022-08-06T15:23:00.135Z,0.60
2022-08-06T15:26:01.508Z,0.60
2022-08-06T15:28:17.913Z,0.73
2022-08-06T15:30:49.663Z,0.63
2022-08-06T15:33:17.741Z,0.70
2022-08-06T15:35:56.758Z,0.63
2022-08-06T15:38:27.929Z,0.73
2022-08-06T15:40:59.893Z,0.80
2022-08-06T15:43:43.706Z,0.40
2022-08-06T15:46:14.456Z,0.60
2022-08-06T15:48:46.931Z,0.75
2022-08-06T15:51:29.631Z,0.98
2022-08-06T15:53:59.440Z,0.77
2022-08-06T15:56:38.523Z,0.68
2022-08-06T15:59:20.307Z,0.88
2022-08-06T16:01:52.663Z,0.75
2022-08-06T16:04:35.836Z,0.60
2022-08-06T16:07:06.330Z,0.63
2022-08-06T16:10:00.832Z,1.23
2022-08-06T16:12:23.183Z,0.75
2022-08-06T16:14:54.419Z,0.80
2022-08-06T16:17:33.467Z,0.88
2022-08-06T16:20:20.808Z,1.00
2022-08-06T16:22:52.317Z,0.90
2022-08-06T16:25:22.010Z,0.80
2022-08-06T16:27:52.400Z,0.80
2022-08-06T16:30:21.459Z,0.73
2022-08-06T16:32:51.081Z,1.00
2022-08-06T16:35:21.802Z,0.80
2022-08-06T16:37:51.929Z,0.80
2022-08-06T16:40:21.610Z,0.60
2022-08-06T16:42:49.790Z,0.77
2022-08-06T16:45:19.477Z,0.77
2022-08-06T16:48:03.713Z,0.60
2022-08-06T16:50:41.496Z,1.17
2022-08-06T16:55:59.047Z,0.93
2022-08-06T16:58:34.107Z,0.80
2022-08-06T17:02:21.425Z,0.70
2022-08-06T17:04:00.031Z,0.63
2022-08-06T17:06:31.332Z,0.80
2022-08-06T17:09:01.271Z,0.70
2022-08-06T17:11:46.824Z,1.00
2022-08-06T17:14:20.832Z,0.80
2022-08-06T17:16:49.001Z,1.00
2022-08-06T17:19:19.456Z,1.08
2022-08-06T17:21:58.227Z,0.90
2022-08-06T17:27:17.512Z,0.90
2022-08-06T17:30:08.287Z,0.60
2022-08-06T17:32:45.924Z,0.80
2022-08-06T17:35:17.334Z,0.88
2022-08-06T17:37:50.087Z,0.60
2022-08-06T17:40:31.147Z,0.47
2022-08-06T17:43:04.155Z,0.85
2022-08-06T17:45:35.193Z,0.80
2022-08-06T17:48:04.288Z,0.50
2022-08-06T17:50:41.656Z,0.82
2022-08-06T17:53:20.411Z,0.65
2022-08-06T17:55:59.989Z,0.80
2022-08-06T17:58:39.177Z,0.85
2022-08-06T18:01:42.907Z,1.00
2022-08-06T18:04:30.210Z,0.80
2022-08-06T18:06:58.283Z,0.73
2022-08-06T18:10:10.076Z,0.75
2022-08-06T18:12:18.535Z,0.70
2022-08-06T18:14:51.945Z,0.60
2022-08-06T18:17:20.781Z,0.70
2022-08-06T18:19:48.908Z,0.70
2022-08-06T18:22:23.206Z,0.65
2022-08-06T18:24:55.383Z,0.70
2022-08-06T18:27:54.400Z,0.70
2022-08-06T18:30:36.579Z,0.70
2022-08-06T18:33:08.228Z,0.70
2022-08-06T18:35:57.860Z,0.60
2022-08-06T18:38:31.964Z,0.65
2022-08-06T18:41:05.868Z,1.00
2022-08-06T18:43:49.574Z,1.00
2022-08-06T18:47:02.146Z,0.75
2022-08-06T18:49:15.381Z,0.82
2022-08-06T18:51:46.771Z,0.60
2022-08-06T18:54:21.256Z,0.75
2022-08-06T18:56:52.274Z,0.60
2022-08-06T18:59:28.244Z,0.85
2022-08-06T19:01:57.254Z,0.70
2022-08-06T19:04:27.185Z,0.90
2022-08-06T19:07:00.307Z,0.80
2022-08-06T19:09:33.857Z,0.95
2022-08-06T19:12:12.683Z,0.65
2022-08-06T19:14:44.170Z,0.88
2022-08-06T19:17:17.097Z,0.90
2022-08-06T19:20:18.570Z,0.80
2022-08-06T19:22:39.449Z,0.80
2022-08-06T19:25:10.610Z,0.93
2022-08-06T19:28:29.814Z,1.02
2022-08-06T19:30:38.613Z,0.60
2022-08-06T19:33:16.457Z,0.80
2022-08-06T19:36:06.974Z,0.70
2022-08-06T19:38:34.173Z,1.00
2022-08-06T19:41:03.885Z,0.70
2022-08-06T19:44:27.061Z,0.57
2022-08-06T19:46:30.126Z,0.82
2022-08-06T19:49:04.419Z,0.50
2022-08-06T19:52:03.393Z,0.57
2022-08-06T19:54:26.234Z,0.70
2022-08-06T19:57:08.594Z,0.80
2022-08-06T20:00:53.367Z,0.77
2022-08-06T20:02:28.777Z,1.52
2022-08-06T20:04:57.897Z,0.55
2022-08-06T20:07:27.219Z,0.45
2022-08-06T20:09:59.815Z,0.60
2022-08-06T20:12:34.945Z,0.73
2022-08-06T20:15:06.161Z,0.38
2022-08-06T20:17:48.647Z,0.77
2022-08-06T20:20:29.044Z,0.80
2022-08-06T20:23:08.875Z,0.80
2022-08-06T20:26:34.063Z,0.90
2022-08-06T20:29:08.029Z,0.80
2022-08-06T20:31:19.873Z,0.57
2022-08-06T20:33:59.227Z,1.02
2022-08-06T20:36:29.143Z,0.93
2022-08-06T20:38:57.575Z,0.60
2022-08-06T20:41:59.129Z,0.90
2022-08-06T20:44:18.211Z,0.80
2022-08-06T20:47:45.184Z,0.95
2022-08-06T20:50:02.840Z,0.75
2022-08-06T20:52:28.619Z,0.80
2022-08-06T20:54:57.948Z,0.88
2022-08-06T20:57:28.390Z,0.95
2022-08-06T21:00:00.052Z,0.80
2022-08-06T21:02:32.521Z,0.85
2022-08-06T21:05:15.230Z,0.80
2022-08-06T21:07:56.634Z,0.70
2022-08-06T21:10:30.301Z,0.80
2022-08-06T21:13:02.063Z,0.80
2022-08-06T21:15:55.034Z,0.80
2022-08-06T21:18:24.117Z,1.00
2022-08-06T21:20:52.815Z,0.63
2022-08-06T21:23:26.219Z,0.90
2022-08-06T21:26:15.068Z,0.95
2022-08-06T21:28:52.345Z,0.90
2022-08-06T21:31:25.297Z,0.98
2022-08-06T21:33:57.001Z,1.00
2022-08-06T21:36:28.712Z,1.10
2022-08-06T21:38:58.004Z,0.98
2022-08-06T21:41:55.891Z,0.90
2022-08-06T21:44:24.335Z,0.70
2022-08-06T21:46:58.789Z,0.80
2022-08-06T21:49:59.990Z,0.73
2022-08-06T21:52:16.245Z,1.00
2022-08-06T21:54:54.246Z,0.80
2022-08-06T21:57:25.223Z,0.70
2022-08-06T21:59:53.580Z,0.70
2022-08-06T22:02:28.229Z,0.70
2022-08-06T22:05:00.795Z,0.90
2022-08-06T22:08:06.935Z,0.88
2022-08-06T22:10:28.885Z,0.90
2022-08-06T22:13:11.718Z,0.88
2022-08-06T22:15:46.906Z,1.00
2022-08-06T22:18:19.017Z,0.60
2022-08-06T22:20:57.364Z,0.70
2022-08-06T22:23:28.889Z,0.70
2022-08-06T22:25:57.531Z,0.68
2022-08-06T22:28:34.168Z,0.82
2022-08-06T22:31:08.363Z,0.90
2022-08-06T22:33:45.785Z,0.80
2022-08-06T22:36:34.751Z,0.75
2022-08-06T22:39:03.809Z,0.60
2022-08-06T22:41:42.404Z,0.90
2022-08-06T22:44:36.339Z,0.70
2022-08-06T22:47:09.611Z,0.82
2022-08-06T22:50:01.489Z,0.65
2022-08-06T22:52:45.035Z,0.80
2022-08-06T22:55:18.020Z,0.90
2022-08-06T22:59:01.575Z,0.80
2022-08-06T23:00:35.640Z,0.82
2022-08-06T23:03:04.201Z,0.80
2022-08-06T23:05:44.816Z,0.88
2022-08-06T23:08:15.443Z,0.95
2022-08-06T23:10:48.196Z,0.70
2022-08-06T23:13:26.009Z,0.63
2022-08-06T23:15:58.079Z,0.70
2022-08-06T23:18:28.861Z,0.80
2022-08-06T23:21:20.341Z,1.00
2022-08-06T23:23:53.763Z,1.08
2022-08-06T23:26:31.808Z,0.75
2022-08-06T23:29:01.423Z,0.88
2022-08-06T23:31:34.006Z,0.80
2022-08-06T23:34:21.243Z,0.75
2022-08-06T23:36:57.314Z,0.70
2022-08-06T23:39:36.962Z,0.90
2022-08-06T23:42:14.678Z,0.82
2022-08-06T23:44:51.895Z,1.13
2022-08-06T23:47:54.166Z,1.00
2022-08-06T23:50:11.113Z,0.80
2022-08-06T23:52:41.657Z,1.10
2022-08-06T23:55:25.675Z,1.00
2022-08-06T23:57:57.894Z,1.00
